createdAt,value
2022-08-03T00:00:29.042Z,88.92
2022-08-03T00:05:48.370Z,88.64
2022-08-03T00:10:55.867Z,88.49
2022-08-03T00:16:03.412Z,88.2
2022-08-03T00:21:10.888Z,88.34
2022-08-03T00:26:18.460Z,88.2
2022-08-03T00:31:25.899Z,88.41001
2022-08-03T00:36:32.219Z,88.49
2022-08-03T00:41:41.206Z,88.63
2022-08-03T00:46:48.322Z,88.22001
2022-08-03T00:51:55.763Z,88.39
2022-08-03T00:57:02.371Z,88.56
2022-08-03T01:02:10.292Z,88.84
2022-08-03T01:07:17.364Z,89.32
2022-08-03T01:12:25.429Z,90.04001
2022-08-03T01:17:32.446Z,90.06
2022-08-03T01:22:40.219Z,89.86
2022-08-03T01:27:47.983Z,90.12
2022-08-03T01:32:54.897Z,90.29
2022-08-03T01:38:02.460Z,89.94
2022-08-03T01:43:11.353Z,90.03
2022-08-03T01:48:19.660Z,90.68
2022-08-03T01:53:28.273Z,90.62
2022-08-03T01:58:35.133Z,90.55
2022-08-03T02:03:42.904Z,90.69
2022-08-03T02:08:50.134Z,90.62
2022-08-03T02:13:56.727Z,90.85
2022-08-03T02:19:04.532Z,90.7
2022-08-03T02:24:11.761Z,90.83
2022-08-03T02:29:19.642Z,90.81
2022-08-03T02:34:27.041Z,90.92
2022-08-03T02:39:34.823Z,90.84
2022-08-03T02:44:41.840Z,91.29001
2022-08-03T02:49:48.356Z,91.1
2022-08-03T02:54:56.213Z,91.26
2022-08-03T03:00:04.053Z,91.28
2022-08-03T03:05:11.274Z,91.31
2022-08-03T03:10:18.404Z,91.17
2022-08-03T03:15:31.408Z,91.2
2022-08-03T03:20:38.361Z,91.36001
2022-08-03T03:25:45.908Z,91.61
2022-08-03T03:30:53.713Z,91.68
2022-08-03T03:36:01.409Z,91.7
2022-08-03T03:41:08.061Z,91.79
2022-08-03T03:46:16.008Z,91.62001
2022-08-03T03:51:23.941Z,91.90001
2022-08-03T03:56:30.968Z,91.99
2022-08-03T04:01:38.799Z,92.08
2022-08-03T04:06:51.094Z,91.88
2022-08-03T04:11:59.192Z,88.55
2022-08-03T04:17:07.279Z,85.48
2022-08-03T04:22:15.211Z,81.2
2022-08-03T04:27:23.910Z,77.9
2022-08-03T04:32:31.924Z,73.48001
2022-08-03T04:37:40.143Z,70.56
2022-08-03T04:42:47.248Z,70.38
2022-08-03T04:47:54.873Z,68.1
2022-08-03T04:53:01.647Z,68.98
2022-08-03T04:58:11.277Z,66.64
2022-08-03T05:03:18.606Z,65.57
2022-08-03T05:08:25.381Z,62.41
2022-08-03T05:13:33.012Z,62.7
2022-08-03T05:18:39.601Z,60.19
2022-08-03T05:23:46.774Z,59.02
2022-08-03T05:28:55.255Z,56.89
2022-08-03T05:35:34.280Z,52.04
2022-08-03T05:40:40.660Z,52.78
2022-08-03T05:45:49.085Z,52.41
2022-08-03T05:50:56.249Z,50.01
2022-08-03T05:56:03.457Z,48.78
2022-08-03T06:01:11.574Z,48.78
2022-08-03T06:06:19.097Z,48.76
2022-08-03T06:11:26.305Z,50.14
2022-08-03T06:16:34.138Z,51.92
2022-08-03T06:21:41.368Z,52.36
2022-08-03T06:26:49.646Z,50.5
2022-08-03T06:31:57.303Z,51.8
2022-08-03T06:37:05.337Z,52.64
2022-08-03T06:42:13.410Z,53.9
2022-08-03T06:47:21.730Z,55.38
2022-08-03T06:52:28.999Z,56.6
2022-08-03T06:57:36.792Z,56.98
2022-08-03T07:02:44.957Z,58.75
2022-08-03T07:07:52.734Z,59.61
2022-08-03T07:13:00.874Z,59.54
2022-08-03T07:18:08.852Z,60.4
2022-08-03T07:23:16.720Z,60.12
2022-08-03T07:28:25.689Z,59.82
2022-08-03T07:34:13.390Z,59.65
2022-08-03T07:39:19.916Z,60.11
2022-08-03T07:44:28.350Z,59.6
2022-08-03T07:49:35.583Z,59.02
2022-08-03T07:54:44.565Z,58.98
2022-08-03T07:59:54.252Z,57.78
2022-08-03T08:05:02.881Z,57.88
2022-08-03T08:10:11.282Z,57.62
2022-08-03T08:15:18.615Z,55.78
2022-08-03T08:20:25.873Z,53.94
2022-08-03T08:25:34.074Z,54.78
2022-08-03T08:30:41.954Z,54.29
2022-08-03T08:35:51.117Z,54.71
2022-08-03T08:40:58.437Z,54.16
2022-08-03T08:46:05.931Z,54.2
2022-08-03T08:51:13.847Z,53.94
2022-08-03T08:56:22.160Z,53.26
2022-08-03T09:01:29.837Z,53.87
2022-08-03T09:06:38.309Z,53.78
2022-08-03T09:11:45.707Z,53.3
2022-08-03T09:16:52.051Z,52.79
2022-08-03T09:21:59.427Z,52.5
2022-08-03T09:27:06.969Z,52.08
2022-08-03T09:32:23.125Z,52.4
2022-08-03T09:37:31.071Z,51.92
2022-08-03T09:42:37.731Z,52.76
2022-08-03T09:47:44.842Z,51.28
2022-08-03T09:52:56.333Z,51.03
2022-08-03T09:58:03.767Z,50.37
2022-08-03T10:03:11.610Z,49.83
2022-08-03T10:08:19.839Z,49.96
2022-08-03T10:13:27.503Z,47.55
2022-08-03T10:18:34.665Z,45.9
2022-08-03T10:23:43.075Z,42.23
2022-08-03T10:28:51.021Z,42.05
2022-08-03T10:33:58.621Z,41.06
2022-08-03T10:39:05.918Z,39.44
2022-08-03T10:44:13.016Z,38.63
2022-08-03T10:49:20.244Z,38.82
2022-08-03T10:54:28.012Z,37.82
2022-08-03T10:59:35.276Z,36.63
2022-08-03T11:04:43.610Z,36.48
2022-08-03T11:09:51.577Z,35.69
2022-08-03T11:14:58.970Z,36.45
2022-08-03T11:20:07.111Z,37.01
2022-08-03T11:25:13.819Z,33.84
2022-08-03T11:30:21.657Z,35.31
2022-08-03T11:35:28.865Z,33.73
2022-08-03T11:40:36.054Z,34.27
2022-08-03T11:45:42.613Z,35.42
2022-08-03T11:50:51.413Z,32.62
2022-08-03T11:55:59.103Z,33.52
2022-08-03T12:01:06.550Z,32.8
2022-08-03T12:06:13.924Z,34.76
2022-08-03T12:11:20.536Z,32.82
2022-08-03T12:16:27.958Z,33.64
2022-08-03T12:21:36.719Z,34.6
2022-08-03T12:27:34.676Z,34.85
2022-08-03T12:32:41.203Z,33.99
2022-08-03T12:37:49.657Z,34.72
2022-08-03T12:42:56.859Z,35.64
2022-08-03T12:48:05.048Z,33.41
2022-08-03T12:53:12.539Z,32.69
2022-08-03T12:58:21.057Z,33.55
2022-08-03T13:03:29.716Z,33.2
2022-08-03T13:08:38.144Z,32.81
2022-08-03T13:13:45.817Z,32.76
2022-08-03T13:18:54.499Z,32.31
2022-08-03T13:24:02.379Z,32.66
2022-08-03T13:29:08.691Z,32.58
2022-08-03T13:34:15.889Z,32.28
2022-08-03T13:39:24.333Z,30.91
2022-08-03T13:44:31.940Z,31.06
2022-08-03T13:49:39.464Z,31.2
2022-08-03T13:54:46.561Z,31.34
2022-08-03T13:59:53.855Z,30.58
2022-08-03T14:05:02.081Z,29.42
2022-08-03T14:10:10.344Z,30.2
2022-08-03T14:15:18.307Z,29.13
2022-08-03T14:20:26.962Z,30.71
2022-08-03T14:25:34.694Z,29.88
2022-08-03T14:30:41.496Z,28.55
2022-08-03T14:35:48.964Z,28.45
2022-08-03T14:40:56.963Z,28.91
2022-08-03T14:46:04.903Z,28.92
2022-08-03T14:51:13.091Z,28.42
2022-08-03T14:56:21.213Z,29.17
2022-08-03T15:01:44.421Z,29.16
2022-08-03T15:06:52.363Z,29.08
2022-08-03T15:12:00.205Z,29.71
2022-08-03T15:17:14.706Z,30.22
2022-08-03T15:22:23.447Z,30.63
2022-08-03T15:27:30.781Z,31.04
2022-08-03T15:32:37.416Z,32.14
2022-08-03T15:38:01.141Z,31.35
2022-08-03T15:43:08.845Z,31.5
2022-08-03T15:48:16.888Z,31.42
2022-08-03T15:53:24.379Z,33.04
2022-08-03T15:58:30.655Z,31.36
2022-08-03T16:03:38.006Z,32.42
2022-08-03T16:08:45.059Z,31.81
2022-08-03T16:13:53.213Z,31.19
2022-08-03T16:19:00.091Z,32.64
2022-08-03T16:24:08.178Z,31.78
2022-08-03T16:29:16.246Z,32.26
2022-08-03T16:34:22.933Z,33.32
2022-08-03T16:39:31.173Z,32.06
2022-08-03T16:44:39.854Z,32.11
2022-08-03T16:49:47.490Z,32.58
2022-08-03T16:54:53.663Z,32.8
2022-08-03T17:00:00.215Z,34.1
2022-08-03T17:05:07.414Z,35.51
2022-08-03T17:10:14.870Z,36.08
2022-08-03T17:15:23.434Z,36.03
2022-08-03T17:20:30.961Z,36.96
2022-08-03T17:25:37.495Z,38.12
2022-08-03T17:30:45.968Z,38.11
2022-08-03T17:35:53.824Z,38.61
2022-08-03T17:41:01.715Z,39.62
2022-08-03T17:46:09.090Z,40.0
2022-08-03T17:51:16.795Z,41.22
2022-08-03T17:56:23.895Z,42.2
2022-08-03T18:01:31.877Z,43.4
2022-08-03T18:06:39.448Z,45.45
2022-08-03T18:11:46.858Z,46.13
2022-08-03T18:16:54.220Z,47.6
2022-08-03T18:22:01.474Z,48.34
2022-08-03T18:27:10.083Z,49.82
2022-08-03T18:32:17.490Z,51.08
2022-08-03T18:37:24.123Z,51.64
2022-08-03T18:42:31.691Z,52.08
2022-08-03T18:47:37.828Z,52.77
2022-08-03T18:52:46.003Z,52.98
2022-08-03T18:57:53.536Z,53.92
2022-08-03T19:03:01.275Z,55.04
2022-08-03T19:08:07.933Z,56.0
2022-08-03T19:13:15.122Z,56.33
2022-08-03T19:18:22.997Z,56.22
2022-08-03T19:23:29.990Z,56.46
2022-08-03T19:28:37.691Z,57.59
2022-08-03T19:33:45.181Z,58.11
2022-08-03T19:38:52.321Z,57.68
2022-08-03T19:43:59.547Z,58.96
2022-08-03T19:49:06.779Z,59.27
2022-08-03T19:54:14.265Z,60.32
2022-08-03T19:59:22.971Z,61.62
2022-08-03T20:04:30.163Z,62.44
2022-08-03T20:09:37.512Z,63.29
2022-08-03T20:14:46.745Z,63.79
2022-08-03T20:19:54.980Z,64.68
2022-08-03T20:25:03.280Z,64.94
2022-08-03T20:30:11.859Z,65.7
2022-08-03T20:35:20.975Z,65.92
2022-08-03T20:40:29.018Z,66.68
2022-08-03T20:45:36.479Z,66.59
2022-08-03T20:50:44.484Z,67.25
2022-08-03T20:55:52.285Z,67.68
2022-08-03T21:01:00.081Z,68.22
2022-08-03T21:06:07.115Z,68.6
2022-08-03T21:11:15.675Z,69.48
2022-08-03T21:16:22.634Z,69.61
2022-08-03T21:21:30.041Z,70.08
2022-08-03T21:26:37.597Z,70.48
2022-08-03T21:31:44.646Z,70.42
2022-08-03T21:36:52.087Z,70.82
2022-08-03T21:42:00.409Z,71.36
2022-08-03T21:47:10.505Z,71.84
2022-08-03T21:52:18.731Z,72.27
2022-08-03T21:57:27.147Z,72.49
2022-08-03T22:02:35.463Z,72.49
2022-08-03T22:07:41.658Z,72.85
2022-08-03T22:12:49.462Z,72.56
2022-08-03T22:17:56.698Z,72.44
2022-08-03T22:23:04.412Z,72.48001
2022-08-03T22:28:12.487Z,72.94
2022-08-03T22:33:20.424Z,73.12
2022-08-03T22:39:05.814Z,73.64
2022-08-03T22:44:13.491Z,74.17
2022-08-03T22:49:22.387Z,74.25
2022-08-03T22:54:31.284Z,74.62
2022-08-03T22:59:39.100Z,74.95
2022-08-03T23:04:46.433Z,75.43
2022-08-03T23:09:53.957Z,75.58
2022-08-03T23:15:00.977Z,75.1
2022-08-03T23:20:08.746Z,75.76
2022-08-03T23:25:15.102Z,76.37001
2022-08-03T23:30:22.936Z,76.57
2022-08-03T23:35:31.843Z,76.36
2022-08-03T23:40:38.616Z,76.81
2022-08-03T23:45:46.259Z,76.58
2022-08-03T23:50:54.239Z,76.37001
2022-08-03T23:56:02.006Z,75.74
